sensor_id;sensor_type;location;lat;lon;timestamp;temperature;humidity
21246;DHT22;10781;50.928;4.440;2024-02-26T00:01:23;8.50;99.90
21246;DHT22;10781;50.928;4.440;2024-02-26T00:03:49;8.30;99.90
21246;DHT22;10781;50.928;4.440;2024-02-26T00:06:15;8.30;99.90
21246;DHT22;10781;50.928;4.440;2024-02-26T00:08:41;8.40;99.90
21246;DHT22;10781;50.928;4.440;2024-02-26T00:11:07;8.30;99.90
21246;DHT22;10781;50.928;4.440;2024-02-26T00:13:32;8.30;99.90
21246;DHT22;10781;50.928;4.440;2024-02-26T00:15:58;8.20;99.90
21246;DHT22;10781;50.928;4.440;2024-02-26T00:18:24;8.20;99.90
21246;DHT22;10781;50.928;4.440;2024-02-26T00:20:49;8.10;99.90
21246;DHT22;10781;50.928;4.440;2024-02-26T00:23:15;7.90;99.90
21246;DHT22;10781;50.928;4.440;2024-02-26T00:25:41;7.90;99.90
21246;DHT22;10781;50.928;4.440;2024-02-26T00:28:09;8.00;99.90
21246;DHT22;10781;50.928;4.440;2024-02-26T00:30:35;7.90;99.90
21246;DHT22;10781;50.928;4.440;2024-02-26T00:33:01;7.90;99.90
21246;DHT22;10781;50.928;4.440;2024-02-26T00:35:27;7.90;99.90
21246;DHT22;10781;50.928;4.440;2024-02-26T00:37:52;7.90;99.90
21246;DHT22;10781;50.928;4.440;2024-02-26T00:40:18;8.00;99.90
21246;DHT22;10781;50.928;4.440;2024-02-26T00:42:44;8.00;99.90
21246;DHT22;10781;50.928;4.440;2024-02-26T00:45:14;8.00;99.90
21246;DHT22;10781;50.928;4.440;2024-02-26T00:47:40;8.20;99.90
21246;DHT22;10781;50.928;4.440;2024-02-26T00:50:10;8.00;99.90
21246;DHT22;10781;50.928;4.440;2024-02-26T00:52:36;7.90;99.90
21246;DHT22;10781;50.928;4.440;2024-02-26T00:55:02;7.90;99.90
21246;DHT22;10781;50.928;4.440;2024-02-26T00:57:28;7.90;99.90
21246;DHT22;10781;50.928;4.440;2024-02-26T00:59:53;7.90;99.90
21246;DHT22;10781;50.928;4.440;2024-02-26T01:02:21;7.90;99.90
21246;DHT22;10781;50.928;4.440;2024-02-26T01:04:47;7.90;99.90
21246;DHT22;10781;50.928;4.440;2024-02-26T01:07:13;7.90;99.90
21246;DHT22;10781;50.928;4.440;2024-02-26T01:09:38;7.90;99.90
21246;DHT22;10781;50.928;4.440;2024-02-26T01:12:04;7.70;99.90
21246;DHT22;10781;50.928;4.440;2024-02-26T01:14:30;7.70;99.90
21246;DHT22;10781;50.928;4.440;2024-02-26T01:16:55;7.80;99.90
21246;DHT22;10781;50.928;4.440;2024-02-26T01:19:21;7.90;99.90
21246;DHT22;10781;50.928;4.440;2024-02-26T01:21:47;7.90;99.90
21246;DHT22;10781;50.928;4.440;2024-02-26T01:24:12;7.80;99.90
21246;DHT22;10781;50.928;4.440;2024-02-26T01:26:38;7.80;99.90
21246;DHT22;10781;50.928;4.440;2024-02-26T01:29:04;7.80;99.90
21246;DHT22;10781;50.928;4.440;2024-02-26T01:31:30;7.70;99.90
21246;DHT22;10781;50.928;4.440;2024-02-26T01:33:55;7.80;99.90
21246;DHT22;10781;50.928;4.440;2024-02-26T01:36:21;7.70;99.90
21246;DHT22;10781;50.928;4.440;2024-02-26T01:38:47;7.70;99.90
21246;DHT22;10781;50.928;4.440;2024-02-26T01:41:14;7.60;99.90
21246;DHT22;10781;50.928;4.440;2024-02-26T01:43:40;7.50;99.90
21246;DHT22;10781;50.928;4.440;2024-02-26T01:46:06;7.70;99.90
21246;DHT22;10781;50.928;4.440;2024-02-26T01:48:34;7.60;99.90
21246;DHT22;10781;50.928;4.440;2024-02-26T01:50:59;7.70;99.90
21246;DHT22;10781;50.928;4.440;2024-02-26T01:53:25;7.80;99.90
21246;DHT22;10781;50.928;4.440;2024-02-26T01:55:51;7.70;99.90
21246;DHT22;10781;50.928;4.440;2024-02-26T01:58:17;7.90;99.90
21246;DHT22;10781;50.928;4.440;2024-02-26T02:00:43;7.90;99.90
21246;DHT22;10781;50.928;4.440;2024-02-26T02:03:09;7.90;99.90
21246;DHT22;10781;50.928;4.440;2024-02-26T02:05:36;7.90;99.90
21246;DHT22;10781;50.928;4.440;2024-02-26T02:08:07;7.90;99.90
21246;DHT22;10781;50.928;4.440;2024-02-26T02:10:34;7.70;99.90
21246;DHT22;10781;50.928;4.440;2024-02-26T02:13:00;7.70;99.90
21246;DHT22;10781;50.928;4.440;2024-02-26T02:15:26;7.70;99.90
21246;DHT22;10781;50.928;4.440;2024-02-26T02:17:52;7.70;99.90
21246;DHT22;10781;50.928;4.440;2024-02-26T02:20:18;7.60;99.90
21246;DHT22;10781;50.928;4.440;2024-02-26T02:22:47;7.60;99.90
21246;DHT22;10781;50.928;4.440;2024-02-26T02:25:13;7.60;99.90
21246;DHT22;10781;50.928;4.440;2024-02-26T02:27:39;7.60;99.90
21246;DHT22;10781;50.928;4.440;2024-02-26T02:30:06;7.60;99.90
21246;DHT22;10781;50.928;4.440;2024-02-26T02:32:32;7.60;99.90
21246;DHT22;10781;50.928;4.440;2024-02-26T02:34:58;7.60;99.90
21246;DHT22;10781;50.928;4.440;2024-02-26T02:37:24;7.60;99.90
21246;DHT22;10781;50.928;4.440;2024-02-26T02:39:50;7.40;99.90
21246;DHT22;10781;50.928;4.440;2024-02-26T02:42:15;7.40;99.90
21246;DHT22;10781;50.928;4.440;2024-02-26T02:44:41;7.40;99.90
21246;DHT22;10781;50.928;4.440;2024-02-26T02:47:06;7.30;99.90
21246;DHT22;10781;50.928;4.440;2024-02-26T02:49:32;7.20;99.90
21246;DHT22;10781;50.928;4.440;2024-02-26T02:51:58;7.30;99.90
21246;DHT22;10781;50.928;4.440;2024-02-26T02:54:24;7.30;99.90
21246;DHT22;10781;50.928;4.440;2024-02-26T02:56:49;7.30;99.90
21246;DHT22;10781;50.928;4.440;2024-02-26T02:59:15;7.20;99.90
21246;DHT22;10781;50.928;4.440;2024-02-26T03:01:40;7.20;99.90
21246;DHT22;10781;50.928;4.440;2024-02-26T03:04:06;7.40;99.90
21246;DHT22;10781;50.928;4.440;2024-02-26T03:06:32;7.30;99.90
21246;DHT22;10781;50.928;4.440;2024-02-26T03:08:57;7.20;99.90
21246;DHT22;10781;50.928;4.440;2024-02-26T03:11:23;7.10;99.90
21246;DHT22;10781;50.928;4.440;2024-02-26T03:13:49;7.10;99.90
21246;DHT22;10781;50.928;4.440;2024-02-26T03:16:14;7.10;99.90
21246;DHT22;10781;50.928;4.440;2024-02-26T03:18:40;7.10;99.90
21246;DHT22;10781;50.928;4.440;2024-02-26T03:21:06;7.10;99.90
21246;DHT22;10781;50.928;4.440;2024-02-26T03:23:32;7.10;99.90
21246;DHT22;10781;50.928;4.440;2024-02-26T03:26:05;7.10;99.90
21246;DHT22;10781;50.928;4.440;2024-02-26T03:28:31;7.20;99.90
21246;DHT22;10781;50.928;4.440;2024-02-26T03:30:59;7.10;99.90
21246;DHT22;10781;50.928;4.440;2024-02-26T03:33:25;7.10;99.90
21246;DHT22;10781;50.928;4.440;2024-02-26T03:35:50;7.20;99.90
21246;DHT22;10781;50.928;4.440;2024-02-26T03:38:16;7.20;99.90
21246;DHT22;10781;50.928;4.440;2024-02-26T03:40:42;7.10;99.90
21246;DHT22;10781;50.928;4.440;2024-02-26T03:43:08;7.10;99.90
21246;DHT22;10781;50.928;4.440;2024-02-26T03:45:33;7.10;99.90
21246;DHT22;10781;50.928;4.440;2024-02-26T03:47:59;7.10;99.90
21246;DHT22;10781;50.928;4.440;2024-02-26T03:50:25;7.10;99.90
21246;DHT22;10781;50.928;4.440;2024-02-26T03:52:50;7.00;99.90
21246;DHT22;10781;50.928;4.440;2024-02-26T03:55:16;7.00;99.90
21246;DHT22;10781;50.928;4.440;2024-02-26T03:57:46;7.10;99.90
21246;DHT22;10781;50.928;4.440;2024-02-26T04:00:12;7.10;99.90
21246;DHT22;10781;50.928;4.440;2024-02-26T04:02:38;7.10;99.90
21246;DHT22;10781;50.928;4.440;2024-02-26T04:05:04;7.00;99.90
21246;DHT22;10781;50.928;4.440;2024-02-26T04:07:30;6.90;99.90
21246;DHT22;10781;50.928;4.440;2024-02-26T04:09:56;6.90;99.90
21246;DHT22;10781;50.928;4.440;2024-02-26T04:12:21;7.00;99.90
21246;DHT22;10781;50.928;4.440;2024-02-26T04:14:47;6.90;99.90
21246;DHT22;10781;50.928;4.440;2024-02-26T04:17:13;7.00;99.90
21246;DHT22;10781;50.928;4.440;2024-02-26T04:19:38;7.00;99.90
21246;DHT22;10781;50.928;4.440;2024-02-26T04:22:04;7.00;99.90
21246;DHT22;10781;50.928;4.440;2024-02-26T04:24:30;7.00;99.90
21246;DHT22;10781;50.928;4.440;2024-02-26T04:26:56;7.00;99.90
21246;DHT22;10781;50.928;4.440;2024-02-26T04:29:21;7.00;99.90
21246;DHT22;10781;50.928;4.440;2024-02-26T04:31:47;7.00;99.90
21246;DHT22;10781;50.928;4.440;2024-02-26T04:34:13;7.00;99.90
21246;DHT22;10781;50.928;4.440;2024-02-26T04:36:39;6.90;99.90
21246;DHT22;10781;50.928;4.440;2024-02-26T04:39:04;6.90;99.90
21246;DHT22;10781;50.928;4.440;2024-02-26T04:41:30;7.10;99.90
21246;DHT22;10781;50.928;4.440;2024-02-26T04:43:55;7.00;99.90
21246;DHT22;10781;50.928;4.440;2024-02-26T04:46:21;7.00;99.90
21246;DHT22;10781;50.928;4.440;2024-02-26T04:48:47;6.90;99.90
21246;DHT22;10781;50.928;4.440;2024-02-26T04:51:13;7.10;99.90
21246;DHT22;10781;50.928;4.440;2024-02-26T04:53:38;7.10;99.90
21246;DHT22;10781;50.928;4.440;2024-02-26T04:56:04;7.20;99.90
21246;DHT22;10781;50.928;4.440;2024-02-26T04:58:30;7.10;99.90
21246;DHT22;10781;50.928;4.440;2024-02-26T05:00:56;7.10;99.90
21246;DHT22;10781;50.928;4.440;2024-02-26T05:03:21;7.20;99.90
21246;DHT22;10781;50.928;4.440;2024-02-26T05:05:47;7.10;99.90
21246;DHT22;10781;50.928;4.440;2024-02-26T05:08:13;7.20;99.90
21246;DHT22;10781;50.928;4.440;2024-02-26T05:10:38;7.10;99.90
21246;DHT22;10781;50.928;4.440;2024-02-26T05:13:08;7.10;99.90
21246;DHT22;10781;50.928;4.440;2024-02-26T05:15:35;7.10;99.90
21246;DHT22;10781;50.928;4.440;2024-02-26T05:18:01;7.10;99.90
21246;DHT22;10781;50.928;4.440;2024-02-26T05:20:26;7.00;99.90
21246;DHT22;10781;50.928;4.440;2024-02-26T05:22:52;7.00;99.90
21246;DHT22;10781;50.928;4.440;2024-02-26T05:25:18;6.90;99.90
21246;DHT22;10781;50.928;4.440;2024-02-26T05:27:44;7.00;99.90
21246;DHT22;10781;50.928;4.440;2024-02-26T05:30:10;6.80;99.90
21246;DHT22;10781;50.928;4.440;2024-02-26T05:32:36;6.80;99.90
21246;DHT22;10781;50.928;4.440;2024-02-26T05:35:02;6.80;99.90
21246;DHT22;10781;50.928;4.440;2024-02-26T05:37:32;6.70;99.90
21246;DHT22;10781;50.928;4.440;2024-02-26T05:39:58;6.80;99.90
21246;DHT22;10781;50.928;4.440;2024-02-26T05:42:24;6.80;99.90
21246;DHT22;10781;50.928;4.440;2024-02-26T05:44:49;6.80;99.90
21246;DHT22;10781;50.928;4.440;2024-02-26T05:47:15;6.80;99.90
21246;DHT22;10781;50.928;4.440;2024-02-26T05:49:41;6.70;99.90
21246;DHT22;10781;50.928;4.440;2024-02-26T05:52:07;6.70;99.90
21246;DHT22;10781;50.928;4.440;2024-02-26T05:54:33;6.80;99.90
21246;DHT22;10781;50.928;4.440;2024-02-26T05:56:58;6.90;99.90
21246;DHT22;10781;50.928;4.440;2024-02-26T05:59:24;6.80;99.90
21246;DHT22;10781;50.928;4.440;2024-02-26T06:01:50;6.70;99.90
21246;DHT22;10781;50.928;4.440;2024-02-26T06:04:15;6.70;99.90
21246;DHT22;10781;50.928;4.440;2024-02-26T06:06:44;6.70;99.90
21246;DHT22;10781;50.928;4.440;2024-02-26T06:09:09;6.70;99.90
21246;DHT22;10781;50.928;4.440;2024-02-26T06:11:37;6.80;99.90
21246;DHT22;10781;50.928;4.440;2024-02-26T06:14:02;6.80;99.90
21246;DHT22;10781;50.928;4.440;2024-02-26T06:16:28;6.80;99.90
21246;DHT22;10781;50.928;4.440;2024-02-26T06:18:54;6.70;99.90
21246;DHT22;10781;50.928;4.440;2024-02-26T06:21:19;6.70;99.90
21246;DHT22;10781;50.928;4.440;2024-02-26T06:23:45;6.70;99.90
21246;DHT22;10781;50.928;4.440;2024-02-26T06:26:10;6.70;99.90
21246;DHT22;10781;50.928;4.440;2024-02-26T06:28:36;6.70;99.90
21246;DHT22;10781;50.928;4.440;2024-02-26T06:31:05;6.70;99.90
21246;DHT22;10781;50.928;4.440;2024-02-26T06:33:32;6.70;99.90
21246;DHT22;10781;50.928;4.440;2024-02-26T06:35:57;6.70;99.90
21246;DHT22;10781;50.928;4.440;2024-02-26T06:38:23;6.70;99.90
21246;DHT22;10781;50.928;4.440;2024-02-26T06:40:49;6.70;99.90
21246;DHT22;10781;50.928;4.440;2024-02-26T06:43:15;6.70;99.90
21246;DHT22;10781;50.928;4.440;2024-02-26T06:45:40;6.70;99.90
21246;DHT22;10781;50.928;4.440;2024-02-26T06:48:06;6.70;99.90
21246;DHT22;10781;50.928;4.440;2024-02-26T06:50:32;6.70;99.90
21246;DHT22;10781;50.928;4.440;2024-02-26T06:52:58;6.80;99.90
21246;DHT22;10781;50.928;4.440;2024-02-26T06:55:23;6.70;99.90
21246;DHT22;10781;50.928;4.440;2024-02-26T06:57:49;6.70;99.90
21246;DHT22;10781;50.928;4.440;2024-02-26T07:00:15;6.50;99.90
21246;DHT22;10781;50.928;4.440;2024-02-26T07:02:42;6.50;99.90
21246;DHT22;10781;50.928;4.440;2024-02-26T07:05:08;6.50;99.90
21246;DHT22;10781;50.928;4.440;2024-02-26T07:07:33;6.60;99.90
21246;DHT22;10781;50.928;4.440;2024-02-26T07:09:59;6.60;99.90
21246;DHT22;10781;50.928;4.440;2024-02-26T07:12:25;6.50;99.90
21246;DHT22;10781;50.928;4.440;2024-02-26T07:14:51;6.50;99.90
21246;DHT22;10781;50.928;4.440;2024-02-26T07:17:17;6.70;99.90
21246;DHT22;10781;50.928;4.440;2024-02-26T07:19:43;6.70;99.90
21246;DHT22;10781;50.928;4.440;2024-02-26T07:22:09;6.70;99.90
21246;DHT22;10781;50.928;4.440;2024-02-26T07:24:34;6.60;99.90
21246;DHT22;10781;50.928;4.440;2024-02-26T07:27:00;6.70;99.90
21246;DHT22;10781;50.928;4.440;2024-02-26T07:29:26;6.70;99.90
21246;DHT22;10781;50.928;4.440;2024-02-26T07:31:51;6.70;99.90
21246;DHT22;10781;50.928;4.440;2024-02-26T07:34:17;6.70;99.90
21246;DHT22;10781;50.928;4.440;2024-02-26T07:36:43;6.70;99.90
21246;DHT22;10781;50.928;4.440;2024-02-26T07:39:10;6.70;99.90
21246;DHT22;10781;50.928;4.440;2024-02-26T07:41:35;6.60;99.90
21246;DHT22;10781;50.928;4.440;2024-02-26T07:44:01;6.50;99.90
21246;DHT22;10781;50.928;4.440;2024-02-26T07:46:26;6.60;99.90
21246;DHT22;10781;50.928;4.440;2024-02-26T07:48:52;6.60;99.90
21246;DHT22;10781;50.928;4.440;2024-02-26T07:51:18;6.60;99.90
21246;DHT22;10781;50.928;4.440;2024-02-26T07:53:44;6.60;99.90
21246;DHT22;10781;50.928;4.440;2024-02-26T07:56:10;6.60;99.90
21246;DHT22;10781;50.928;4.440;2024-02-26T07:58:36;6.50;99.90
21246;DHT22;10781;50.928;4.440;2024-02-26T08:01:01;6.60;99.90
21246;DHT22;10781;50.928;4.440;2024-02-26T08:03:27;6.60;99.90
21246;DHT22;10781;50.928;4.440;2024-02-26T08:05:53;6.60;99.90
21246;DHT22;10781;50.928;4.440;2024-02-26T08:08:18;6.60;99.90
21246;DHT22;10781;50.928;4.440;2024-02-26T08:10:44;6.70;99.90
21246;DHT22;10781;50.928;4.440;2024-02-26T08:13:10;6.60;99.90
21246;DHT22;10781;50.928;4.440;2024-02-26T08:15:36;6.60;99.90
21246;DHT22;10781;50.928;4.440;2024-02-26T08:18:04;6.70;99.90
21246;DHT22;10781;50.928;4.440;2024-02-26T08:20:30;6.60;99.90
21246;DHT22;10781;50.928;4.440;2024-02-26T08:22:56;6.60;99.90
21246;DHT22;10781;50.928;4.440;2024-02-26T08:25:23;6.50;99.90
21246;DHT22;10781;50.928;4.440;2024-02-26T08:27:49;6.50;99.90
21246;DHT22;10781;50.928;4.440;2024-02-26T08:30:15;6.50;99.90
21246;DHT22;10781;50.928;4.440;2024-02-26T08:32:47;6.60;99.90
21246;DHT22;10781;50.928;4.440;2024-02-26T08:35:12;6.60;99.90
21246;DHT22;10781;50.928;4.440;2024-02-26T08:37:38;6.70;99.90
21246;DHT22;10781;50.928;4.440;2024-02-26T08:40:05;6.70;99.90
21246;DHT22;10781;50.928;4.440;2024-02-26T08:42:31;6.60;99.90
21246;DHT22;10781;50.928;4.440;2024-02-26T08:44:56;6.60;99.90
21246;DHT22;10781;50.928;4.440;2024-02-26T08:47:25;6.60;99.90
21246;DHT22;10781;50.928;4.440;2024-02-26T08:49:51;6.60;99.90
21246;DHT22;10781;50.928;4.440;2024-02-26T08:52:17;6.70;99.90
21246;DHT22;10781;50.928;4.440;2024-02-26T08:54:42;6.70;99.90
21246;DHT22;10781;50.928;4.440;2024-02-26T08:57:08;6.80;99.90
21246;DHT22;10781;50.928;4.440;2024-02-26T08:59:34;6.80;99.90
21246;DHT22;10781;50.928;4.440;2024-02-26T09:01:59;6.70;99.90
21246;DHT22;10781;50.928;4.440;2024-02-26T09:04:25;6.70;99.90
21246;DHT22;10781;50.928;4.440;2024-02-26T09:06:52;6.60;99.90
21246;DHT22;10781;50.928;4.440;2024-02-26T09:09:17;6.70;99.90
21246;DHT22;10781;50.928;4.440;2024-02-26T09:11:43;6.60;99.90
21246;DHT22;10781;50.928;4.440;2024-02-26T09:14:08;6.50;99.90
21246;DHT22;10781;50.928;4.440;2024-02-26T09:16:34;6.60;99.90
21246;DHT22;10781;50.928;4.440;2024-02-26T09:19:00;6.70;99.90
21246;DHT22;10781;50.928;4.440;2024-02-26T09:21:25;6.60;99.90
21246;DHT22;10781;50.928;4.440;2024-02-26T09:23:51;6.60;99.90
21246;DHT22;10781;50.928;4.440;2024-02-26T09:26:17;6.60;99.90
21246;DHT22;10781;50.928;4.440;2024-02-26T09:28:44;6.60;99.90
21246;DHT22;10781;50.928;4.440;2024-02-26T09:31:10;6.50;99.90
21246;DHT22;10781;50.928;4.440;2024-02-26T09:33:35;6.50;99.90
21246;DHT22;10781;50.928;4.440;2024-02-26T09:36:02;6.50;99.90
21246;DHT22;10781;50.928;4.440;2024-02-26T09:38:28;6.40;99.90
21246;DHT22;10781;50.928;4.440;2024-02-26T09:40:59;6.30;99.90
21246;DHT22;10781;50.928;4.440;2024-02-26T09:43:28;6.40;99.90
21246;DHT22;10781;50.928;4.440;2024-02-26T09:45:58;6.50;99.90
21246;DHT22;10781;50.928;4.440;2024-02-26T09:48:24;6.40;99.90
21246;DHT22;10781;50.928;4.440;2024-02-26T09:50:50;6.50;99.90
21246;DHT22;10781;50.928;4.440;2024-02-26T09:53:17;6.50;99.90
21246;DHT22;10781;50.928;4.440;2024-02-26T09:55:43;6.50;99.90
21246;DHT22;10781;50.928;4.440;2024-02-26T09:58:10;6.50;99.90
21246;DHT22;10781;50.928;4.440;2024-02-26T10:00:37;6.50;99.90
21246;DHT22;10781;50.928;4.440;2024-02-26T10:03:06;6.50;99.90
21246;DHT22;10781;50.928;4.440;2024-02-26T10:05:35;6.50;99.90
21246;DHT22;10781;50.928;4.440;2024-02-26T10:08:04;6.50;99.90
21246;DHT22;10781;50.928;4.440;2024-02-26T10:10:30;6.50;99.90
21246;DHT22;10781;50.928;4.440;2024-02-26T10:12:59;6.50;99.90
21246;DHT22;10781;50.928;4.440;2024-02-26T10:15:25;6.50;99.90
21246;DHT22;10781;50.928;4.440;2024-02-26T10:17:51;6.50;99.90
21246;DHT22;10781;50.928;4.440;2024-02-26T10:20:17;6.60;99.90
21246;DHT22;10781;50.928;4.440;2024-02-26T10:22:46;6.60;99.90
21246;DHT22;10781;50.928;4.440;2024-02-26T10:25:12;6.50;99.90
21246;DHT22;10781;50.928;4.440;2024-02-26T10:27:40;6.50;99.90
21246;DHT22;10781;50.928;4.440;2024-02-26T10:30:20;6.50;99.90
21246;DHT22;10781;50.928;4.440;2024-02-26T10:32:51;6.50;99.90
21246;DHT22;10781;50.928;4.440;2024-02-26T10:35:17;6.50;99.90
21246;DHT22;10781;50.928;4.440;2024-02-26T10:37:44;6.50;99.90
21246;DHT22;10781;50.928;4.440;2024-02-26T10:40:14;6.40;99.90
21246;DHT22;10781;50.928;4.440;2024-02-26T10:42:40;6.40;99.90
21246;DHT22;10781;50.928;4.440;2024-02-26T10:45:07;6.50;99.90
21246;DHT22;10781;50.928;4.440;2024-02-26T10:47:34;6.50;99.90
21246;DHT22;10781;50.928;4.440;2024-02-26T10:50:05;6.50;99.90
21246;DHT22;10781;50.928;4.440;2024-02-26T10:52:35;6.50;99.90
21246;DHT22;10781;50.928;4.440;2024-02-26T10:55:02;6.50;99.90
21246;DHT22;10781;50.928;4.440;2024-02-26T10:57:39;6.60;99.90
21246;DHT22;10781;50.928;4.440;2024-02-26T11:00:06;6.50;99.90
21246;DHT22;10781;50.928;4.440;2024-02-26T11:02:33;6.50;99.90
21246;DHT22;10781;50.928;4.440;2024-02-26T11:05:03;6.40;99.90
21246;DHT22;10781;50.928;4.440;2024-02-26T11:07:32;6.30;99.90
21246;DHT22;10781;50.928;4.440;2024-02-26T11:10:05;6.30;99.90
21246;DHT22;10781;50.928;4.440;2024-02-26T11:12:35;6.30;99.90
21246;DHT22;10781;50.928;4.440;2024-02-26T11:15:03;6.20;99.90
21246;DHT22;10781;50.928;4.440;2024-02-26T11:17:29;6.20;99.90
21246;DHT22;10781;50.928;4.440;2024-02-26T11:20:00;6.10;99.90
21246;DHT22;10781;50.928;4.440;2024-02-26T11:22:27;6.10;99.90
21246;DHT22;10781;50.928;4.440;2024-02-26T11:24:54;6.20;99.90
21246;DHT22;10781;50.928;4.440;2024-02-26T11:27:26;6.10;99.90
21246;DHT22;10781;50.928;4.440;2024-02-26T11:29:56;6.20;99.90
21246;DHT22;10781;50.928;4.440;2024-02-26T11:32:23;6.20;99.90
21246;DHT22;10781;50.928;4.440;2024-02-26T11:34:49;6.10;99.90
21246;DHT22;10781;50.928;4.440;2024-02-26T11:37:16;6.10;99.90
21246;DHT22;10781;50.928;4.440;2024-02-26T11:39:43;6.20;99.90
21246;DHT22;10781;50.928;4.440;2024-02-26T11:42:14;6.20;99.90
21246;DHT22;10781;50.928;4.440;2024-02-26T11:44:40;6.20;99.90
21246;DHT22;10781;50.928;4.440;2024-02-26T11:47:25;6.20;99.90
21246;DHT22;10781;50.928;4.440;2024-02-26T11:49:50;6.20;99.90
21246;DHT22;10781;50.928;4.440;2024-02-26T11:52:16;6.30;99.90
21246;DHT22;10781;50.928;4.440;2024-02-26T11:54:56;6.20;99.90
21246;DHT22;10781;50.928;4.440;2024-02-26T11:57:39;6.20;99.90
21246;DHT22;10781;50.928;4.440;2024-02-26T12:00:13;6.30;99.90
21246;DHT22;10781;50.928;4.440;2024-02-26T12:02:52;6.20;99.90
21246;DHT22;10781;50.928;4.440;2024-02-26T12:05:32;6.30;99.90
21246;DHT22;10781;50.928;4.440;2024-02-26T12:08:08;6.40;99.90
21246;DHT22;10781;50.928;4.440;2024-02-26T12:10:36;6.40;99.90
21246;DHT22;10781;50.928;4.440;2024-02-26T12:13:07;6.30;99.90
21246;DHT22;10781;50.928;4.440;2024-02-26T12:15:55;6.40;99.90
21246;DHT22;10781;50.928;4.440;2024-02-26T12:18:22;6.40;99.90
21246;DHT22;10781;50.928;4.440;2024-02-26T12:21:02;6.40;99.90
21246;DHT22;10781;50.928;4.440;2024-02-26T12:23:27;6.40;99.90
21246;DHT22;10781;50.928;4.440;2024-02-26T12:25:58;6.50;99.90
21246;DHT22;10781;50.928;4.440;2024-02-26T12:28:30;6.50;99.90
21246;DHT22;10781;50.928;4.440;2024-02-26T12:30:56;6.40;99.90
21246;DHT22;10781;50.928;4.440;2024-02-26T12:33:25;6.30;99.90
21246;DHT22;10781;50.928;4.440;2024-02-26T12:35:52;6.30;99.90
21246;DHT22;10781;50.928;4.440;2024-02-26T12:38:18;6.30;99.90
21246;DHT22;10781;50.928;4.440;2024-02-26T12:40:44;6.30;99.90
21246;DHT22;10781;50.928;4.440;2024-02-26T12:43:09;6.20;99.90
21246;DHT22;10781;50.928;4.440;2024-02-26T12:45:40;6.20;99.90
21246;DHT22;10781;50.928;4.440;2024-02-26T12:48:07;6.20;99.90
21246;DHT22;10781;50.928;4.440;2024-02-26T12:50:33;6.10;99.90
21246;DHT22;10781;50.928;4.440;2024-02-26T12:53:00;6.10;99.90
21246;DHT22;10781;50.928;4.440;2024-02-26T12:55:26;6.10;99.90
21246;DHT22;10781;50.928;4.440;2024-02-26T12:57:52;6.20;99.90
21246;DHT22;10781;50.928;4.440;2024-02-26T13:00:24;6.10;99.90
21246;DHT22;10781;50.928;4.440;2024-02-26T13:02:51;6.20;99.90
21246;DHT22;10781;50.928;4.440;2024-02-26T13:05:19;6.10;99.90
21246;DHT22;10781;50.928;4.440;2024-02-26T13:07:45;6.30;99.90
21246;DHT22;10781;50.928;4.440;2024-02-26T13:10:15;6.20;99.90
21246;DHT22;10781;50.928;4.440;2024-02-26T13:12:44;6.20;99.90
21246;DHT22;10781;50.928;4.440;2024-02-26T13:15:14;6.20;99.90
21246;DHT22;10781;50.928;4.440;2024-02-26T13:17:40;6.20;99.90
21246;DHT22;10781;50.928;4.440;2024-02-26T13:20:08;6.10;99.90
21246;DHT22;10781;50.928;4.440;2024-02-26T13:22:37;6.00;99.90
21246;DHT22;10781;50.928;4.440;2024-02-26T13:25:04;6.10;99.90
21246;DHT22;10781;50.928;4.440;2024-02-26T13:27:29;6.10;99.90
21246;DHT22;10781;50.928;4.440;2024-02-26T13:30:12;6.10;99.90
21246;DHT22;10781;50.928;4.440;2024-02-26T13:32:39;6.10;99.90
21246;DHT22;10781;50.928;4.440;2024-02-26T13:35:10;6.20;99.90
21246;DHT22;10781;50.928;4.440;2024-02-26T13:37:39;6.30;99.90
21246;DHT22;10781;50.928;4.440;2024-02-26T13:40:10;6.20;99.90
21246;DHT22;10781;50.928;4.440;2024-02-26T13:42:36;6.10;99.90
21246;DHT22;10781;50.928;4.440;2024-02-26T13:45:03;6.10;99.90
21246;DHT22;10781;50.928;4.440;2024-02-26T13:47:32;6.20;99.90
21246;DHT22;10781;50.928;4.440;2024-02-26T13:49:58;6.20;99.90
21246;DHT22;10781;50.928;4.440;2024-02-26T13:52:23;6.20;99.90
21246;DHT22;10781;50.928;4.440;2024-02-26T13:54:49;6.30;99.90
21246;DHT22;10781;50.928;4.440;2024-02-26T13:57:14;6.20;99.90
21246;DHT22;10781;50.928;4.440;2024-02-26T13:59:40;6.30;99.90
21246;DHT22;10781;50.928;4.440;2024-02-26T14:02:08;6.30;99.90
21246;DHT22;10781;50.928;4.440;2024-02-26T14:04:34;6.30;99.90
21246;DHT22;10781;50.928;4.440;2024-02-26T14:07:00;6.30;99.90
21246;DHT22;10781;50.928;4.440;2024-02-26T14:09:26;6.40;99.90
21246;DHT22;10781;50.928;4.440;2024-02-26T14:11:51;6.40;99.90
21246;DHT22;10781;50.928;4.440;2024-02-26T14:14:17;6.40;99.90
21246;DHT22;10781;50.928;4.440;2024-02-26T14:16:42;6.50;99.90
21246;DHT22;10781;50.928;4.440;2024-02-26T14:19:08;6.40;99.90
21246;DHT22;10781;50.928;4.440;2024-02-26T14:21:35;6.40;99.90
21246;DHT22;10781;50.928;4.440;2024-02-26T14:24:00;6.40;99.90
21246;DHT22;10781;50.928;4.440;2024-02-26T14:26:26;6.40;99.90
21246;DHT22;10781;50.928;4.440;2024-02-26T14:28:52;6.40;99.90
21246;DHT22;10781;50.928;4.440;2024-02-26T14:31:17;6.50;99.90
21246;DHT22;10781;50.928;4.440;2024-02-26T14:33:43;6.50;99.90
21246;DHT22;10781;50.928;4.440;2024-02-26T14:36:09;6.50;99.90
21246;DHT22;10781;50.928;4.440;2024-02-26T14:38:35;6.50;99.90
21246;DHT22;10781;50.928;4.440;2024-02-26T14:41:01;6.50;99.90
21246;DHT22;10781;50.928;4.440;2024-02-26T14:43:28;6.50;99.90
21246;DHT22;10781;50.928;4.440;2024-02-26T14:45:54;6.50;99.90
21246;DHT22;10781;50.928;4.440;2024-02-26T14:48:20;6.50;99.90
21246;DHT22;10781;50.928;4.440;2024-02-26T14:50:45;6.50;99.90
21246;DHT22;10781;50.928;4.440;2024-02-26T14:53:11;6.50;99.90
21246;DHT22;10781;50.928;4.440;2024-02-26T14:55:36;6.50;99.90
21246;DHT22;10781;50.928;4.440;2024-02-26T14:58:02;6.50;99.90
21246;DHT22;10781;50.928;4.440;2024-02-26T15:00:28;6.50;99.90
21246;DHT22;10781;50.928;4.440;2024-02-26T15:02:53;6.40;99.90
21246;DHT22;10781;50.928;4.440;2024-02-26T15:05:20;6.50;99.90
21246;DHT22;10781;50.928;4.440;2024-02-26T15:07:46;6.40;99.90
21246;DHT22;10781;50.928;4.440;2024-02-26T15:10:12;6.40;99.90
21246;DHT22;10781;50.928;4.440;2024-02-26T15:12:38;6.50;99.90
21246;DHT22;10781;50.928;4.440;2024-02-26T15:15:04;6.40;99.90
21246;DHT22;10781;50.928;4.440;2024-02-26T15:17:29;6.40;99.90
21246;DHT22;10781;50.928;4.440;2024-02-26T15:19:57;6.40;99.90
21246;DHT22;10781;50.928;4.440;2024-02-26T15:22:24;6.30;99.90
21246;DHT22;10781;50.928;4.440;2024-02-26T15:24:50;6.30;99.90
21246;DHT22;10781;50.928;4.440;2024-02-26T15:27:16;6.40;99.90
21246;DHT22;10781;50.928;4.440;2024-02-26T15:29:42;6.40;99.90
21246;DHT22;10781;50.928;4.440;2024-02-26T15:32:08;6.40;99.90
21246;DHT22;10781;50.928;4.440;2024-02-26T15:34:33;6.50;99.90
21246;DHT22;10781;50.928;4.440;2024-02-26T15:36:59;6.40;99.90
21246;DHT22;10781;50.928;4.440;2024-02-26T15:39:25;6.40;99.90
21246;DHT22;10781;50.928;4.440;2024-02-26T15:41:50;6.40;99.90